createdAt,value
2018-02-20T00:00:07.519Z,2.87
2018-02-20T00:02:35.678Z,2.85
2018-02-20T00:05:03.888Z,2.80
2018-02-20T00:07:32.118Z,2.75
2018-02-20T00:10:01.470Z,2.75
2018-02-20T00:12:30.562Z,2.64
2018-02-20T00:14:58.786Z,2.70
2018-02-20T00:17:26.998Z,2.64
2018-02-20T00:19:55.236Z,2.62
2018-02-20T00:22:24.354Z,2.60
2018-02-20T00:24:52.620Z,2.55
2018-02-20T00:27:21.740Z,2.57
2018-02-20T00:29:49.929Z,2.50
2018-02-20T00:32:18.115Z,2.39
2018-02-20T00:34:46.309Z,2.43
2018-02-20T00:37:14.728Z,2.47
2018-02-20T00:39:43.056Z,2.36
2018-02-20T00:42:11.332Z,2.30
2018-02-20T00:44:51.365Z,2.24
2018-02-20T00:47:23.246Z,2.16
2018-02-20T00:49:54.977Z,2.35
2018-02-20T00:52:23.230Z,2.29
2018-02-20T00:54:53.505Z,2.21
2018-02-20T00:57:21.726Z,2.16
2018-02-20T00:59:49.944Z,2.17
2018-02-20T01:02:18.754Z,2.16
2018-02-20T01:04:47.028Z,2.14
2018-02-20T01:07:15.924Z,2.08
2018-02-20T01:09:44.180Z,2.02
2018-02-20T01:12:12.344Z,1.99
2018-02-20T01:14:41.513Z,1.97
2018-02-20T01:17:09.730Z,2.05
2018-02-20T01:19:37.950Z,1.99
2018-02-20T01:22:06.133Z,2.11
2018-02-20T01:24:34.307Z,2.09
2018-02-20T01:27:02.475Z,1.97
2018-02-20T01:29:30.712Z,1.96
2018-02-20T01:31:58.907Z,1.95
2018-02-20T01:34:27.105Z,1.89
2018-02-20T01:36:55.557Z,1.93
2018-02-20T01:39:23.728Z,1.89
2018-02-20T01:41:51.888Z,1.94
2018-02-20T01:44:20.124Z,1.95
2018-02-20T01:46:48.354Z,1.95
2018-02-20T01:49:16.550Z,1.96
2018-02-20T01:51:44.764Z,1.92
2018-02-20T01:54:12.950Z,1.96
2018-02-20T01:56:41.173Z,1.87
2018-02-20T01:59:09.381Z,1.85
2018-02-20T02:01:51.457Z,1.76
2018-02-20T02:04:19.698Z,1.75
2018-02-20T02:06:47.860Z,1.77
2018-02-20T02:09:16.192Z,1.79
2018-02-20T02:11:44.447Z,1.75
2018-02-20T02:14:12.605Z,1.62
2018-02-20T02:16:41.789Z,1.72
2018-02-20T02:19:09.958Z,1.72
2018-02-20T02:21:38.157Z,1.63
2018-02-20T02:24:06.352Z,1.61
2018-02-20T02:26:34.579Z,1.57
2018-02-20T02:29:02.887Z,1.58
2018-02-20T02:31:31.105Z,1.59
2018-02-20T02:33:59.352Z,1.63
2018-02-20T02:36:27.593Z,1.65
2018-02-20T02:38:55.828Z,1.57
2018-02-20T02:41:23.988Z,1.40
2018-02-20T02:43:52.202Z,1.49
2018-02-20T02:46:23.558Z,1.48
2018-02-20T02:48:51.726Z,1.49
2018-02-20T02:51:19.959Z,1.51
2018-02-20T02:53:48.212Z,1.51
2018-02-20T02:56:16.473Z,1.51
2018-02-20T02:58:44.730Z,1.48
2018-02-20T03:01:12.957Z,1.42
2018-02-20T03:03:41.133Z,1.47
2018-02-20T03:06:09.341Z,1.35
2018-02-20T03:08:57.977Z,1.33
2018-02-20T03:11:26.173Z,1.30
2018-02-20T03:13:54.383Z,1.30
2018-02-20T03:16:22.632Z,1.30
2018-02-20T03:18:50.836Z,1.31
2018-02-20T03:21:18.968Z,1.37
2018-02-20T03:23:47.193Z,1.34
2018-02-20T03:26:15.431Z,1.32
2018-02-20T03:28:43.650Z,1.38
2018-02-20T03:31:11.795Z,1.32
2018-02-20T03:33:40.028Z,1.35
2018-02-20T03:36:08.275Z,1.39
2018-02-20T03:38:44.735Z,1.42
2018-02-20T03:41:12.913Z,1.33
2018-02-20T03:43:41.133Z,1.34
2018-02-20T03:46:09.401Z,1.28
2018-02-20T03:48:37.621Z,1.28
2018-02-20T03:51:05.783Z,1.26
2018-02-20T03:53:34.027Z,1.26
2018-02-20T03:56:02.231Z,1.22
2018-02-20T03:58:30.396Z,1.20
2018-02-20T04:00:58.585Z,1.18
2018-02-20T04:03:26.776Z,1.27
2018-02-20T04:05:55.087Z,1.32
2018-02-20T04:08:23.277Z,1.26
2018-02-20T04:10:51.493Z,1.24
2018-02-20T04:13:19.737Z,1.24
2018-02-20T04:15:47.931Z,1.24
2018-02-20T04:18:16.114Z,1.24
2018-02-20T04:20:44.308Z,1.15
2018-02-20T04:23:12.539Z,1.24
2018-02-20T04:25:41.804Z,1.12
2018-02-20T04:28:09.964Z,1.22
2018-02-20T04:30:38.199Z,1.22
2018-02-20T04:33:06.398Z,1.18
2018-02-20T04:35:35.543Z,1.15
2018-02-20T04:38:03.749Z,1.10
2018-02-20T04:40:32.005Z,1.17
2018-02-20T04:43:00.200Z,1.18
2018-02-20T04:45:28.497Z,1.16
2018-02-20T04:47:56.754Z,1.16
2018-02-20T04:50:24.982Z,1.11
2018-02-20T04:52:58.674Z,1.10
2018-02-20T04:55:26.897Z,1.10
2018-02-20T04:57:55.145Z,1.09
2018-02-20T05:00:27.811Z,1.14
2018-02-20T05:02:56.023Z,1.16
2018-02-20T05:05:24.192Z,1.15
2018-02-20T05:07:52.377Z,1.07
2018-02-20T05:10:24.454Z,1.13
2018-02-20T05:13:11.210Z,1.08
2018-02-20T05:15:40.855Z,1.05
2018-02-20T05:18:09.146Z,1.03
2018-02-20T05:20:37.390Z,1.10
2018-02-20T05:23:06.406Z,1.09
2018-02-20T05:25:34.618Z,1.12
2018-02-20T05:28:03.880Z,1.11
2018-02-20T05:30:32.100Z,1.05
2018-02-20T05:33:04.705Z,1.02
2018-02-20T05:35:32.887Z,1.06
2018-02-20T05:38:03.068Z,1.06
2018-02-20T05:40:33.032Z,1.06
2018-02-20T05:43:01.703Z,1.06
2018-02-20T05:45:29.936Z,1.03
2018-02-20T05:47:58.100Z,1.04
2018-02-20T05:50:26.956Z,1.00
2018-02-20T05:53:01.626Z,1.40
2018-02-20T05:55:33.105Z,1.25
2018-02-20T05:58:04.840Z,1.14
2018-02-20T06:00:33.088Z,1.20
2018-02-20T06:03:01.467Z,1.14
2018-02-20T06:05:29.883Z,1.11
2018-02-20T06:07:58.083Z,1.11
2018-02-20T06:10:26.352Z,1.15
2018-02-20T06:12:54.560Z,1.09
2018-02-20T06:15:22.771Z,1.06
2018-02-20T06:17:51.055Z,1.05
2018-02-20T06:20:21.076Z,1.24
2018-02-20T06:22:49.292Z,1.09
2018-02-20T06:25:17.656Z,1.10
2018-02-20T06:27:45.880Z,1.05
2018-02-20T06:30:14.164Z,1.15
2018-02-20T06:32:42.345Z,1.11
2018-02-20T06:35:10.609Z,1.14
2018-02-20T06:37:38.781Z,1.15
2018-02-20T06:40:06.974Z,2.41
2018-02-20T06:42:35.226Z,1.92
2018-02-20T06:45:03.485Z,1.44
2018-02-20T06:47:31.723Z,1.27
2018-02-20T06:49:59.947Z,1.24
2018-02-20T06:52:28.141Z,1.20
2018-02-20T06:54:56.307Z,1.19
2018-02-20T06:57:24.488Z,1.12
2018-02-20T06:59:52.688Z,1.02
2018-02-20T07:02:23.749Z,1.08
2018-02-20T07:04:51.955Z,1.13
2018-02-20T07:07:20.140Z,1.15
2018-02-20T07:09:48.382Z,1.21
2018-02-20T07:12:16.600Z,1.24
2018-02-20T07:14:44.777Z,1.24
2018-02-20T07:17:13.078Z,1.35
2018-02-20T07:19:41.492Z,1.45
2018-02-20T07:22:09.673Z,1.56
2018-02-20T07:24:37.920Z,1.56
2018-02-20T07:27:07.086Z,1.48
2018-02-20T07:29:35.310Z,1.65
2018-02-20T07:32:03.521Z,1.53
2018-02-20T07:34:31.786Z,1.52
2018-02-20T07:37:00.121Z,1.70
2018-02-20T07:39:28.348Z,1.93
2018-02-20T07:41:56.709Z,1.98
2018-02-20T07:44:26.770Z,2.17
2018-02-20T07:46:58.563Z,2.33
2018-02-20T07:49:26.823Z,2.47
2018-02-20T07:51:56.003Z,2.53
2018-02-20T07:54:28.717Z,2.68
2018-02-20T07:56:57.920Z,2.84
2018-02-20T07:59:26.122Z,3.15
2018-02-20T08:01:54.411Z,3.29
2018-02-20T08:04:24.598Z,3.44
2018-02-20T08:06:53.849Z,3.51
2018-02-20T08:09:22.032Z,3.67
2018-02-20T08:11:50.266Z,3.47
2018-02-20T08:14:18.503Z,3.87
2018-02-20T08:16:46.796Z,4.22
2018-02-20T08:19:15.003Z,4.25
2018-02-20T08:21:43.264Z,4.43
2018-02-20T08:24:11.427Z,4.79
2018-02-20T08:26:43.279Z,4.67
2018-02-20T08:29:11.546Z,4.36
2018-02-20T08:31:41.688Z,4.13
2018-02-20T08:34:10.772Z,4.83
2018-02-20T08:36:38.985Z,4.71
2018-02-20T08:39:07.206Z,5.51
2018-02-20T08:41:40.394Z,5.70
2018-02-20T08:44:08.682Z,5.56
2018-02-20T08:46:36.880Z,5.63
2018-02-20T08:49:05.093Z,5.95
2018-02-20T08:51:34.550Z,6.30
2018-02-20T08:54:02.844Z,5.24
2018-02-20T08:56:31.174Z,4.92
2018-02-20T08:59:05.169Z,4.84
2018-02-20T09:01:33.488Z,4.95
2018-02-20T09:04:01.732Z,5.44
2018-02-20T09:06:31.224Z,5.58
2018-02-20T09:08:59.547Z,5.74
2018-02-20T09:11:34.114Z,5.83
2018-02-20T09:14:03.472Z,5.81
2018-02-20T09:16:31.720Z,5.81
2018-02-20T09:19:00.916Z,5.68
2018-02-20T09:21:31.024Z,5.71
2018-02-20T09:24:03.017Z,5.54
2018-02-20T09:26:32.377Z,5.13
2018-02-20T09:29:04.867Z,5.56
2018-02-20T09:31:33.084Z,5.65
2018-02-20T09:34:01.430Z,6.01
2018-02-20T09:36:29.634Z,5.91
2018-02-20T09:38:57.806Z,6.27
2018-02-20T09:41:26.157Z,5.64
2018-02-20T09:43:54.372Z,6.47
2018-02-20T09:46:22.598Z,6.70
2018-02-20T09:48:51.815Z,6.43
2018-02-20T09:51:19.971Z,6.43
2018-02-20T09:53:48.180Z,6.33
2018-02-20T09:56:17.185Z,6.33
2018-02-20T09:58:51.785Z,6.17
2018-02-20T10:01:21.947Z,6.52
2018-02-20T10:03:50.102Z,6.77
2018-02-20T10:06:18.314Z,6.58
2018-02-20T10:08:46.531Z,6.51
2018-02-20T10:11:14.968Z,6.55
2018-02-20T10:13:43.321Z,6.49
2018-02-20T10:16:11.983Z,6.73
2018-02-20T10:18:40.362Z,6.94
2018-02-20T10:21:08.840Z,6.84
2018-02-20T10:23:37.156Z,6.78
2018-02-20T10:26:05.524Z,6.79
2018-02-20T10:28:34.189Z,7.04
2018-02-20T10:31:02.434Z,7.06
2018-02-20T10:33:30.651Z,7.44
2018-02-20T10:35:58.871Z,7.50
2018-02-20T10:38:30.428Z,7.60
2018-02-20T10:40:58.685Z,7.70
2018-02-20T10:43:26.884Z,7.52
2018-02-20T10:45:55.272Z,7.79
2018-02-20T10:48:23.540Z,8.36
2018-02-20T10:50:51.708Z,7.83
2018-02-20T10:53:19.983Z,7.85
2018-02-20T10:55:48.218Z,7.46
2018-02-20T10:58:16.465Z,7.19
2018-02-20T11:00:44.664Z,7.37
2018-02-20T11:03:12.945Z,7.61
2018-02-20T11:05:42.207Z,7.83
2018-02-20T11:08:10.410Z,8.09
2018-02-20T11:10:38.673Z,8.17
2018-02-20T11:13:06.877Z,7.75
2018-02-20T11:15:36.844Z,7.93
2018-02-20T11:18:07.627Z,7.90
2018-02-20T11:20:38.593Z,7.87
2018-02-20T11:23:08.333Z,8.05
2018-02-20T11:25:37.647Z,7.52
2018-02-20T11:28:05.727Z,7.79
2018-02-20T11:30:33.849Z,8.19
2018-02-20T11:33:01.987Z,8.14
2018-02-20T11:35:30.210Z,7.34
2018-02-20T11:37:58.317Z,8.06
2018-02-20T11:43:26.286Z,8.60
2018-02-20T11:45:54.414Z,8.18
2018-02-20T11:48:22.550Z,8.00
2018-02-20T11:50:50.671Z,7.25
2018-02-20T11:53:18.788Z,7.84
2018-02-20T11:55:46.921Z,7.97
2018-02-20T11:58:15.048Z,7.99
2018-02-20T12:00:43.185Z,8.09
2018-02-20T12:03:11.321Z,7.92
2018-02-20T12:05:39.507Z,8.30
2018-02-20T12:08:07.618Z,8.40
2018-02-20T12:10:35.763Z,8.20
2018-02-20T12:13:03.880Z,8.16
2018-02-20T12:15:32.027Z,8.28
2018-02-20T12:18:00.164Z,8.35
2018-02-20T12:20:28.308Z,8.71
2018-02-20T12:22:56.439Z,8.35
2018-02-20T12:25:24.559Z,8.08
2018-02-20T12:27:52.850Z,8.14
2018-02-20T12:30:20.982Z,8.21
2018-02-20T12:32:49.115Z,7.79
2018-02-20T12:35:17.219Z,8.12
2018-02-20T12:37:45.365Z,8.34
2018-02-20T12:40:13.466Z,8.32
2018-02-20T12:42:41.635Z,7.79
2018-02-20T12:45:09.738Z,8.10
2018-02-20T12:47:37.874Z,8.18
2018-02-20T12:50:05.986Z,8.19
2018-02-20T12:52:34.104Z,8.16
2018-02-20T12:55:02.360Z,8.25
2018-02-20T12:57:30.490Z,8.10
2018-02-20T12:59:58.637Z,8.27
2018-02-20T13:02:26.745Z,8.07
2018-02-20T13:04:54.922Z,7.90
2018-02-20T13:07:23.053Z,7.99
2018-02-20T13:09:51.188Z,8.31
2018-02-20T13:12:19.309Z,8.26
2018-02-20T13:14:47.460Z,8.36
2018-02-20T13:17:15.601Z,8.35
2018-02-20T13:19:43.717Z,8.51
2018-02-20T13:22:11.859Z,8.47
2018-02-20T13:24:40.001Z,8.37
2018-02-20T13:27:08.159Z,7.97
2018-02-20T13:29:36.345Z,8.15
2018-02-20T13:32:04.506Z,8.12
2018-02-20T13:34:32.631Z,8.10
2018-02-20T13:37:00.790Z,8.40
2018-02-20T13:39:28.940Z,8.13
2018-02-20T13:41:57.229Z,8.24
2018-02-20T13:44:25.354Z,8.25
2018-02-20T13:46:53.488Z,8.29
2018-02-20T13:49:21.621Z,8.18
2018-02-20T13:51:49.805Z,7.97
2018-02-20T13:54:17.918Z,8.08
2018-02-20T13:56:46.073Z,8.17
2018-02-20T13:59:14.254Z,8.19
2018-02-20T14:01:42.382Z,8.25
2018-02-20T14:04:10.553Z,8.12
2018-02-20T14:06:38.702Z,8.29
2018-02-20T14:09:06.827Z,8.14
2018-02-20T14:11:34.977Z,8.04
2018-02-20T14:14:03.121Z,7.97
2018-02-20T14:16:31.252Z,7.74
2018-02-20T14:18:59.580Z,8.02
2018-02-20T14:21:27.847Z,7.97
2018-02-20T14:23:56.035Z,8.16
2018-02-20T14:26:24.193Z,8.15
2018-02-20T14:28:52.347Z,8.43
2018-02-20T14:31:20.590Z,8.12
2018-02-20T14:33:48.712Z,8.11
2018-02-20T14:36:16.846Z,7.95
2018-02-20T14:38:44.963Z,8.00
2018-02-20T14:41:13.107Z,7.56
2018-02-20T14:43:41.277Z,7.57
2018-02-20T14:46:09.417Z,7.97
2018-02-20T14:48:37.557Z,7.84
2018-02-20T14:51:05.700Z,8.05
2018-02-20T14:53:33.856Z,7.77
2018-02-20T14:56:02.026Z,7.91
2018-02-20T14:58:30.164Z,8.11
2018-02-20T15:00:58.295Z,8.19
2018-02-20T15:03:26.461Z,7.79
2018-02-20T15:05:54.581Z,7.72
2018-02-20T15:08:22.755Z,7.69
2018-02-20T15:10:51.074Z,7.72
2018-02-20T15:13:19.437Z,7.55
2018-02-20T15:15:47.616Z,7.82
2018-02-20T15:18:15.745Z,8.00
2018-02-20T15:20:43.913Z,7.68
2018-02-20T15:23:12.084Z,7.80
2018-02-20T15:25:40.269Z,7.86
2018-02-20T15:28:08.425Z,7.45
2018-02-20T15:30:37.502Z,7.56
2018-02-20T15:33:05.659Z,7.50
2018-02-20T15:35:34.783Z,7.38
2018-02-20T15:38:02.920Z,7.41
2018-02-20T15:40:31.059Z,7.20
2018-02-20T15:42:59.201Z,7.37
2018-02-20T15:45:27.355Z,7.37
2018-02-20T15:47:55.556Z,7.38
2018-02-20T15:50:23.682Z,7.29
2018-02-20T15:52:51.843Z,7.38
2018-02-20T15:55:20.025Z,7.21
2018-02-20T15:57:48.183Z,7.14
2018-02-20T16:00:16.335Z,7.03
2018-02-20T16:02:44.452Z,6.96
2018-02-20T16:05:12.737Z,6.74
2018-02-20T16:07:40.873Z,6.86
2018-02-20T16:10:09.003Z,6.85
2018-02-20T16:12:37.175Z,6.77
2018-02-20T16:15:05.312Z,6.80
2018-02-20T16:17:33.452Z,6.55
2018-02-20T16:20:01.603Z,6.65
2018-02-20T16:22:29.739Z,6.64
2018-02-20T16:24:57.883Z,6.53
2018-02-20T16:27:26.072Z,6.52
2018-02-20T16:29:54.248Z,6.60
2018-02-20T16:32:22.398Z,6.76
2018-02-20T16:34:50.516Z,6.59
2018-02-20T16:37:18.651Z,6.40
2018-02-20T16:39:46.844Z,6.33
2018-02-20T16:42:14.979Z,6.34
2018-02-20T16:44:43.110Z,6.43
2018-02-20T16:47:11.342Z,6.26
2018-02-20T16:49:39.483Z,6.08
2018-02-20T16:52:07.664Z,6.05
2018-02-20T16:54:35.792Z,6.23
2018-02-20T16:57:03.954Z,6.00
2018-02-20T16:59:32.118Z,6.07
2018-02-20T17:02:00.293Z,6.15
2018-02-20T17:04:28.450Z,6.19
2018-02-20T17:06:57.474Z,6.03
2018-02-20T17:09:25.624Z,6.11
2018-02-20T17:11:53.753Z,6.05
2018-02-20T17:14:21.871Z,6.21
2018-02-20T17:16:49.999Z,6.04
2018-02-20T17:19:18.122Z,5.90
2018-02-20T17:21:46.277Z,5.91
2018-02-20T17:24:14.412Z,5.76
2018-02-20T17:26:42.544Z,5.79
2018-02-20T17:29:10.656Z,6.14
2018-02-20T17:31:38.768Z,5.92
2018-02-20T17:34:06.894Z,5.79
2018-02-20T17:36:35.023Z,5.70
2018-02-20T17:39:03.203Z,5.54
2018-02-20T17:41:31.266Z,5.53
2018-02-20T17:43:59.442Z,5.50
2018-02-20T17:46:27.719Z,5.42
2018-02-20T17:48:55.831Z,5.42
2018-02-20T17:51:23.961Z,5.36
2018-02-20T17:53:52.093Z,5.35
2018-02-20T17:56:20.211Z,5.26
2018-02-20T17:58:48.599Z,5.26
2018-02-20T18:01:16.719Z,5.24
2018-02-20T18:03:44.842Z,5.13
2018-02-20T18:06:12.957Z,5.05
2018-02-20T18:08:41.084Z,5.09
2018-02-20T18:11:09.231Z,4.98
2018-02-20T18:13:37.335Z,5.01
2018-02-20T18:16:05.476Z,4.90
2018-02-20T18:18:33.635Z,4.82
2018-02-20T18:21:01.748Z,5.04
2018-02-20T18:23:29.867Z,4.90
2018-02-20T18:25:58.004Z,4.94
2018-02-20T18:28:26.132Z,4.83
2018-02-20T18:30:54.707Z,4.81
2018-02-20T18:33:22.838Z,5.01
2018-02-20T18:35:50.964Z,4.95
2018-02-20T18:38:19.079Z,4.87
2018-02-20T18:40:47.243Z,4.81
2018-02-20T18:43:15.482Z,4.77
2018-02-20T18:45:43.596Z,4.84
2018-02-20T18:48:11.730Z,4.80
2018-02-20T18:50:39.854Z,4.81
2018-02-20T18:53:07.957Z,4.65
2018-02-20T18:55:36.280Z,4.71
2018-02-20T18:58:06.895Z,4.67
2018-02-20T19:00:35.736Z,4.51
2018-02-20T19:03:03.940Z,4.70
2018-02-20T19:05:32.022Z,4.75
2018-02-20T19:08:00.146Z,4.67
2018-02-20T19:10:28.259Z,4.66
2018-02-20T19:12:56.372Z,4.47
2018-02-20T19:15:25.326Z,4.60
2018-02-20T19:17:53.454Z,4.56
2018-02-20T19:20:21.577Z,4.38
2018-02-20T19:22:49.678Z,4.43
2018-02-20T19:25:17.797Z,4.42
2018-02-20T19:27:46.813Z,4.51
2018-02-20T19:30:14.945Z,4.42
2018-02-20T19:32:43.066Z,4.39
2018-02-20T19:35:11.180Z,6.03
2018-02-20T19:37:39.464Z,4.98
2018-02-20T19:40:07.578Z,4.66
2018-02-20T19:42:36.031Z,4.53
2018-02-20T19:45:04.196Z,4.53
2018-02-20T19:47:32.348Z,4.32
2018-02-20T19:50:01.375Z,4.30
2018-02-20T19:52:29.484Z,4.30
2018-02-20T19:54:57.633Z,4.20
2018-02-20T19:57:25.751Z,4.22
2018-02-20T19:59:54.016Z,4.18
2018-02-20T20:02:22.184Z,3.99
2018-02-20T20:04:50.288Z,4.14
2018-02-20T20:07:18.522Z,4.13
2018-02-20T20:09:46.632Z,4.19
2018-02-20T20:12:14.766Z,4.15
2018-02-20T20:14:42.878Z,4.04
2018-02-20T20:17:11.067Z,4.02
2018-02-20T20:19:39.199Z,4.01
2018-02-20T20:22:07.318Z,4.10
2018-02-20T20:24:35.463Z,3.95
2018-02-20T20:27:03.630Z,3.88
2018-02-20T20:29:31.773Z,3.81
2018-02-20T20:31:59.886Z,3.73
2018-02-20T20:34:28.014Z,3.66
2018-02-20T20:36:56.128Z,3.61
2018-02-20T20:39:24.253Z,3.61
2018-02-20T20:41:52.426Z,3.57
2018-02-20T20:44:20.550Z,3.47
2018-02-20T20:46:48.674Z,3.38
2018-02-20T20:49:16.796Z,3.35
2018-02-20T20:51:44.914Z,3.32
2018-02-20T20:54:13.058Z,3.23
2018-02-20T20:56:41.169Z,3.24
2018-02-20T20:59:09.271Z,3.19
2018-02-20T21:01:37.415Z,3.06
2018-02-20T21:04:05.527Z,3.00
2018-02-20T21:06:33.649Z,2.88
2018-02-20T21:09:01.847Z,2.97
2018-02-20T21:11:29.916Z,2.88
2018-02-20T21:13:58.063Z,2.86
2018-02-20T21:16:26.180Z,2.75
2018-02-20T21:18:54.318Z,2.80
2018-02-20T21:21:22.451Z,2.87
2018-02-20T21:23:50.563Z,2.86
2018-02-20T21:26:18.672Z,2.96
2018-02-20T21:28:46.833Z,2.93
2018-02-20T21:31:14.982Z,2.98
2018-02-20T21:33:43.080Z,2.89
2018-02-20T21:36:11.357Z,2.91
2018-02-20T21:38:39.464Z,2.82
2018-02-20T21:41:07.576Z,2.77
2018-02-20T21:43:35.709Z,2.73
2018-02-20T21:46:03.825Z,2.65
2018-02-20T21:48:31.943Z,2.69
2018-02-20T21:51:00.115Z,2.73
2018-02-20T21:53:28.569Z,2.53
2018-02-20T21:55:56.673Z,2.61
2018-02-20T21:58:24.806Z,2.66
2018-02-20T22:00:53.374Z,2.62
2018-02-20T22:03:21.510Z,2.61
2018-02-20T22:05:49.709Z,2.43
2018-02-20T22:08:17.838Z,2.38
2018-02-20T22:10:45.969Z,2.40
2018-02-20T22:13:14.083Z,2.36
2018-02-20T22:15:42.427Z,2.35
2018-02-20T22:18:13.715Z,2.33
2018-02-20T22:20:41.855Z,2.36
2018-02-20T22:23:09.977Z,2.33
2018-02-20T22:25:38.106Z,2.40
2018-02-20T22:28:06.262Z,2.35
2018-02-20T22:30:34.466Z,2.25
2018-02-20T22:33:02.584Z,2.27
2018-02-20T22:35:30.703Z,2.46
2018-02-20T22:37:58.832Z,2.30
2018-02-20T22:40:26.973Z,2.26
2018-02-20T22:42:55.106Z,2.30
2018-02-20T22:45:23.225Z,2.19
2018-02-20T22:47:51.354Z,2.20
2018-02-20T22:50:19.460Z,2.15
2018-02-20T22:52:47.624Z,2.20
2018-02-20T22:55:15.733Z,2.10
2018-02-20T22:57:43.874Z,2.05
2018-02-20T23:00:11.989Z,2.07
2018-02-20T23:02:40.105Z,2.04
2018-02-20T23:05:08.294Z,2.04
2018-02-20T23:07:36.357Z,2.05
2018-02-20T23:10:04.463Z,2.02
2018-02-20T23:12:32.606Z,2.00
2018-02-20T23:15:00.704Z,1.92
2018-02-20T23:17:28.825Z,1.96
2018-02-20T23:19:56.948Z,2.07
2018-02-20T23:22:25.071Z,2.05
2018-02-20T23:24:53.212Z,2.16
2018-02-20T23:27:21.353Z,2.10
2018-02-20T23:29:49.504Z,2.03
2018-02-20T23:32:17.613Z,1.92
2018-02-20T23:34:45.774Z,1.97
2018-02-20T23:37:13.913Z,1.91
2018-02-20T23:39:42.041Z,1.93
2018-02-20T23:42:10.166Z,1.89
2018-02-20T23:44:38.271Z,2.03
2018-02-20T23:47:06.394Z,2.20
2018-02-20T23:49:34.947Z,2.10
2018-02-20T23:52:03.139Z,2.04
2018-02-20T23:54:31.268Z,1.83
2018-02-20T23:56:59.399Z,1.90
2018-02-20T23:59:27.529Z,1.81
